createdAt,value
2022-12-05T00:02:22.055Z,55.85
2022-12-05T00:04:50.385Z,55.84
2022-12-05T00:07:18.234Z,55.84
2022-12-05T00:09:46.607Z,55.68
2022-12-05T00:12:14.755Z,56.10
2022-12-05T00:14:44.035Z,55.88
2022-12-05T00:17:12.311Z,55.85
2022-12-05T00:19:40.649Z,55.78
2022-12-05T00:22:08.475Z,55.96
2022-12-05T00:24:37.122Z,55.98
2022-12-05T00:27:05.109Z,56.00
2022-12-05T00:29:33.494Z,56.02
2022-12-05T00:32:01.694Z,55.89
2022-12-05T00:34:30.339Z,55.75
2022-12-05T00:36:59.338Z,55.94
2022-12-05T00:39:28.198Z,55.87
2022-12-05T00:41:56.316Z,56.00
2022-12-05T00:44:24.426Z,55.89
2022-12-05T00:46:52.663Z,55.97
2022-12-05T00:49:20.785Z,56.07
2022-12-05T00:51:48.792Z,55.92
2022-12-05T00:54:17.702Z,55.84
2022-12-05T00:56:46.559Z,55.86
2022-12-05T00:59:20.869Z,55.92
2022-12-05T01:01:50.668Z,55.78
2022-12-05T01:04:23.174Z,55.80
2022-12-05T01:06:55.950Z,55.63
2022-12-05T01:09:25.598Z,55.92
2022-12-05T01:11:53.788Z,55.84
2022-12-05T01:14:25.126Z,55.84
2022-12-05T01:16:55.796Z,55.89
2022-12-05T01:19:31.456Z,55.77
2022-12-05T01:22:02.604Z,55.90
2022-12-05T01:24:31.442Z,55.71
2022-12-05T01:26:59.598Z,55.98
2022-12-05T01:29:28.042Z,55.92
2022-12-05T01:31:56.818Z,56.01
2022-12-05T01:34:25.694Z,55.87
2022-12-05T01:36:54.434Z,55.86
2022-12-05T01:39:22.997Z,55.97
2022-12-05T01:41:51.520Z,55.78
2022-12-05T01:44:19.418Z,56.08
2022-12-05T01:46:52.878Z,56.02
2022-12-05T01:49:37.520Z,55.89
2022-12-05T01:52:20.533Z,55.92
2022-12-05T01:54:54.688Z,55.90
2022-12-05T01:57:23.874Z,56.18
2022-12-05T01:59:58.893Z,55.94
2022-12-05T02:02:32.486Z,55.99
2022-12-05T02:05:10.615Z,55.94
2022-12-05T02:07:41.369Z,56.08
2022-12-05T02:10:10.845Z,56.17
2022-12-05T02:12:39.445Z,56.01
2022-12-05T02:15:56.942Z,55.89
2022-12-05T02:18:57.842Z,55.96
2022-12-05T02:22:05.057Z,56.03
2022-12-05T02:24:43.117Z,56.18
2022-12-05T02:27:38.684Z,56.21
2022-12-05T02:30:14.324Z,56.12
2022-12-05T02:33:23.847Z,55.97
2022-12-05T02:36:04.271Z,56.08
2022-12-05T02:38:56.025Z,55.90
2022-12-05T02:41:31.034Z,55.95
2022-12-05T02:44:11.277Z,55.96
2022-12-05T02:46:42.052Z,56.01
2022-12-05T02:49:17.565Z,55.87
2022-12-05T02:51:52.502Z,55.96
2022-12-05T02:54:26.552Z,55.79
2022-12-05T02:56:57.505Z,55.85
2022-12-05T02:59:25.706Z,55.84
2022-12-05T03:01:55.314Z,55.90
2022-12-05T03:04:26.802Z,55.95
2022-12-05T03:07:09.904Z,55.73
2022-12-05T03:09:48.044Z,55.94
2022-12-05T03:12:30.555Z,55.85
2022-12-05T03:15:08.431Z,55.89
2022-12-05T03:17:53.644Z,55.94
2022-12-05T03:20:33.340Z,55.88
2022-12-05T03:23:38.167Z,55.94
2022-12-05T03:26:45.118Z,55.93
2022-12-05T03:29:24.161Z,55.94
2022-12-05T03:32:28.860Z,56.02
2022-12-05T03:35:22.791Z,56.06
2022-12-05T03:38:04.252Z,56.00
2022-12-05T03:40:42.829Z,56.10
2022-12-05T03:43:29.313Z,56.05
2022-12-05T03:46:11.501Z,55.95
2022-12-05T03:48:42.626Z,56.05
2022-12-05T03:51:14.862Z,56.09
2022-12-05T03:53:59.630Z,56.02
2022-12-05T03:56:49.388Z,55.89
2022-12-05T03:59:35.843Z,55.98
2022-12-05T04:02:32.796Z,55.95
2022-12-05T04:05:29.240Z,55.81
2022-12-05T04:08:12.150Z,55.85
2022-12-05T04:10:50.530Z,55.90
2022-12-05T04:13:33.186Z,55.75
2022-12-05T04:17:03.623Z,55.54
2022-12-05T04:20:15.048Z,55.69
2022-12-05T04:22:44.627Z,56.05
2022-12-05T04:25:35.169Z,55.93
2022-12-05T04:29:07.641Z,55.92
2022-12-05T04:31:45.678Z,56.19
2022-12-05T04:34:15.945Z,56.24
2022-12-05T04:37:14.673Z,56.05
2022-12-05T04:40:14.637Z,55.62
2022-12-05T04:42:44.942Z,55.83
2022-12-05T04:45:16.156Z,55.67
2022-12-05T04:47:54.836Z,55.49
2022-12-05T04:50:24.609Z,55.64
2022-12-05T04:52:56.986Z,55.49
2022-12-05T04:55:28.110Z,55.61
2022-12-05T04:58:08.005Z,55.60
2022-12-05T05:00:51.437Z,55.44
2022-12-05T05:03:59.244Z,55.48
2022-12-05T05:06:27.643Z,55.72
2022-12-05T05:08:58.677Z,56.17
2022-12-05T05:11:29.834Z,55.93
2022-12-05T05:13:57.901Z,56.19
2022-12-05T05:16:33.394Z,56.03
2022-12-05T05:19:01.717Z,56.09
2022-12-05T05:21:39.667Z,56.07
2022-12-05T05:24:11.835Z,56.11
2022-12-05T05:26:43.003Z,56.18
2022-12-05T05:29:13.525Z,56.11
2022-12-05T05:31:42.347Z,56.13
2022-12-05T05:34:12.128Z,56.18
2022-12-05T05:36:40.347Z,56.13
2022-12-05T05:39:14.238Z,56.17
2022-12-05T05:41:42.858Z,56.18
2022-12-05T05:44:11.847Z,55.99
2022-12-05T05:46:40.235Z,56.10
2022-12-05T05:49:08.500Z,56.01
2022-12-05T05:51:39.231Z,56.05
2022-12-05T05:54:07.202Z,56.28
2022-12-05T05:56:36.624Z,56.02
2022-12-05T05:59:06.886Z,56.19
2022-12-05T06:01:35.542Z,56.06
2022-12-05T06:04:03.951Z,55.93
2022-12-05T06:06:32.313Z,55.99
2022-12-05T06:09:00.386Z,56.00
2022-12-05T06:11:28.749Z,56.02
2022-12-05T06:14:01.390Z,55.82
2022-12-05T06:16:32.309Z,55.87
2022-12-05T06:19:01.950Z,56.10
2022-12-05T06:21:30.116Z,56.15
2022-12-05T06:23:58.730Z,55.78
2022-12-05T06:26:29.027Z,55.85
2022-12-05T06:28:57.149Z,55.68
2022-12-05T06:31:32.074Z,55.82
2022-12-05T06:34:05.221Z,55.62
2022-12-05T06:36:33.680Z,55.72
2022-12-05T06:39:03.057Z,55.89
2022-12-05T06:41:32.073Z,55.70
2022-12-05T06:44:02.491Z,55.68
2022-12-05T06:46:31.214Z,55.67
2022-12-05T06:49:00.248Z,55.73
2022-12-05T06:51:28.984Z,55.73
2022-12-05T06:53:58.379Z,55.55
2022-12-05T06:56:29.537Z,55.49
2022-12-05T06:58:58.363Z,55.67
2022-12-05T07:01:42.853Z,55.71
2022-12-05T07:04:15.884Z,55.72
2022-12-05T07:06:50.126Z,55.40
2022-12-05T07:09:46.250Z,55.54
2022-12-05T07:12:17.705Z,55.46
2022-12-05T07:14:50.680Z,55.51
2022-12-05T07:17:20.471Z,55.39
2022-12-05T07:19:49.793Z,55.31
2022-12-05T07:22:21.167Z,55.54
2022-12-05T07:24:53.581Z,55.58
2022-12-05T07:27:27.522Z,55.61
2022-12-05T07:29:56.779Z,55.60
2022-12-05T07:32:25.183Z,55.49
2022-12-05T07:34:55.529Z,55.57
2022-12-05T07:37:24.921Z,55.73
2022-12-05T07:39:53.739Z,55.60
2022-12-05T07:42:21.918Z,55.44
2022-12-05T07:44:50.386Z,55.80
2022-12-05T07:47:18.515Z,55.49
2022-12-05T07:49:46.768Z,55.59
2022-12-05T07:52:14.634Z,55.57
2022-12-05T07:54:42.699Z,55.45
2022-12-05T07:57:11.683Z,55.41
2022-12-05T07:59:40.688Z,55.44
2022-12-05T08:02:10.672Z,55.40
2022-12-05T08:04:39.626Z,55.40
2022-12-05T08:07:12.645Z,55.37
2022-12-05T08:09:41.994Z,55.59
2022-12-05T08:12:10.205Z,55.54
2022-12-05T08:14:38.746Z,55.60
2022-12-05T08:17:08.196Z,55.78
2022-12-05T08:19:37.094Z,55.70
2022-12-05T08:22:05.794Z,55.34
2022-12-05T08:24:36.488Z,55.48
2022-12-05T08:27:06.338Z,55.50
2022-12-05T08:29:34.485Z,55.64
2022-12-05T08:32:02.456Z,55.55
2022-12-05T08:34:30.858Z,55.52
2022-12-05T08:36:58.683Z,55.53
2022-12-05T08:39:27.357Z,55.52
2022-12-05T08:41:55.908Z,55.40
2022-12-05T08:44:24.159Z,55.36
2022-12-05T08:46:52.578Z,55.70
2022-12-05T08:49:21.144Z,55.49
2022-12-05T08:51:49.371Z,55.57
2022-12-05T08:54:17.925Z,55.68
2022-12-05T08:56:46.254Z,55.49
2022-12-05T08:59:14.787Z,55.25
2022-12-05T09:01:43.518Z,55.62
2022-12-05T09:04:12.744Z,55.43
2022-12-05T09:06:44.597Z,55.45
2022-12-05T09:09:13.138Z,55.38
2022-12-05T09:11:49.394Z,55.50
2022-12-05T09:14:18.914Z,55.54
2022-12-05T09:16:48.356Z,55.22
2022-12-05T09:19:21.527Z,55.32
2022-12-05T09:21:49.800Z,55.35
2022-12-05T09:24:18.165Z,55.44
2022-12-05T09:26:47.386Z,55.54
2022-12-05T09:29:17.707Z,55.64
2022-12-05T09:31:48.969Z,55.28
2022-12-05T09:34:18.645Z,55.69
2022-12-05T09:36:55.783Z,55.69
2022-12-05T09:39:29.543Z,55.55
2022-12-05T09:42:18.741Z,55.30
2022-12-05T09:45:26.046Z,55.37
2022-12-05T09:47:55.725Z,55.72
2022-12-05T09:50:35.283Z,55.76
2022-12-05T09:53:21.048Z,55.37
2022-12-05T09:55:53.633Z,55.46
2022-12-05T09:58:42.643Z,55.53
2022-12-05T10:01:33.154Z,55.28
2022-12-05T10:04:29.244Z,55.44
2022-12-05T10:07:25.500Z,55.27
2022-12-05T10:10:21.340Z,55.29
2022-12-05T10:13:36.970Z,55.14
2022-12-05T10:16:14.653Z,55.66
2022-12-05T10:19:12.443Z,55.33
2022-12-05T10:21:50.158Z,55.37
2022-12-05T10:24:32.078Z,55.31
2022-12-05T10:27:07.392Z,55.41
2022-12-05T10:29:57.916Z,55.27
2022-12-05T10:32:46.917Z,55.08
2022-12-05T10:35:41.562Z,55.45
2022-12-05T10:38:31.534Z,55.29
2022-12-05T10:41:05.606Z,55.11
2022-12-05T10:43:38.241Z,55.24
2022-12-05T10:46:09.728Z,55.31
2022-12-05T10:48:42.817Z,55.31
2022-12-05T10:51:18.733Z,55.06
2022-12-05T10:53:51.323Z,55.41
2022-12-05T10:56:40.750Z,55.22
2022-12-05T10:59:17.871Z,55.41
2022-12-05T11:01:59.843Z,55.24
2022-12-05T11:04:44.673Z,55.24
2022-12-05T11:07:36.651Z,55.24
2022-12-05T11:10:44.233Z,55.29
2022-12-05T11:13:23.954Z,55.30
2022-12-05T11:15:55.572Z,55.43
2022-12-05T11:18:30.528Z,55.25
2022-12-05T11:21:12.460Z,55.22
2022-12-05T11:23:41.155Z,55.57
2022-12-05T11:26:37.982Z,55.04
2022-12-05T11:29:36.935Z,55.38
2022-12-05T11:32:18.325Z,55.51
2022-12-05T11:35:12.563Z,55.32
2022-12-05T11:38:11.372Z,55.33
2022-12-05T11:41:01.108Z,55.15
2022-12-05T11:44:07.403Z,55.35
2022-12-05T11:46:47.743Z,55.46
2022-12-05T11:49:59.704Z,55.06
2022-12-05T11:52:40.447Z,55.54
2022-12-05T11:55:23.534Z,55.09
2022-12-05T11:58:03.482Z,55.40
2022-12-05T12:00:57.669Z,55.39
2022-12-05T12:04:13.400Z,55.15
2022-12-05T12:06:57.325Z,55.64
2022-12-05T12:09:41.044Z,55.46
2022-12-05T12:12:53.516Z,55.31
2022-12-05T12:15:46.731Z,55.94
2022-12-05T12:18:53.329Z,55.75
2022-12-05T12:21:43.140Z,56.05
2022-12-05T12:24:32.379Z,55.79
2022-12-05T12:27:33.934Z,55.58
2022-12-05T12:30:05.693Z,56.06
2022-12-05T12:33:02.303Z,55.48
2022-12-05T12:36:00.445Z,55.51
2022-12-05T12:39:09.270Z,55.27
2022-12-05T12:42:22.371Z,55.36
2022-12-05T12:45:28.491Z,55.19
2022-12-05T12:48:37.024Z,55.38
2022-12-05T12:51:08.583Z,55.28
2022-12-05T12:53:58.686Z,55.26
2022-12-05T12:56:47.789Z,55.16
2022-12-05T12:59:32.910Z,54.91
2022-12-05T13:02:17.643Z,54.60
2022-12-05T13:05:05.245Z,54.32
2022-12-05T13:07:48.507Z,54.50
2022-12-05T13:10:30.602Z,54.51
2022-12-05T13:13:01.079Z,54.55
2022-12-05T13:15:56.673Z,54.66
2022-12-05T13:18:26.842Z,54.79
2022-12-05T13:21:01.728Z,54.41
2022-12-05T13:23:34.434Z,54.43
2022-12-05T13:26:10.954Z,54.19
2022-12-05T13:28:55.222Z,54.19
2022-12-05T13:31:40.392Z,53.91
2022-12-05T13:34:27.544Z,53.97
2022-12-05T13:37:20.268Z,53.96
2022-12-05T13:40:14.581Z,54.27
2022-12-05T13:42:43.477Z,54.12
2022-12-05T13:45:34.904Z,54.35
2022-12-05T13:48:28.465Z,54.18
2022-12-05T13:51:36.311Z,53.99
2022-12-05T13:54:31.778Z,53.89
2022-12-05T13:57:54.021Z,53.91
2022-12-05T14:00:38.688Z,53.85
2022-12-05T14:03:22.316Z,53.68
2022-12-05T14:05:54.267Z,54.04
2022-12-05T14:08:31.241Z,53.95
2022-12-05T14:10:59.544Z,53.95
2022-12-05T14:13:27.688Z,53.91
2022-12-05T14:16:17.353Z,53.82
2022-12-05T14:19:37.785Z,54.05
2022-12-05T14:22:48.236Z,53.75
2022-12-05T14:25:29.385Z,53.82
2022-12-05T14:28:18.636Z,54.14
2022-12-05T14:31:01.836Z,53.74
2022-12-05T14:33:30.264Z,54.30
2022-12-05T14:36:08.956Z,54.18
2022-12-05T14:38:37.958Z,54.12
2022-12-05T14:41:34.388Z,54.01
2022-12-05T14:44:08.589Z,54.09
2022-12-05T14:46:37.555Z,54.21
2022-12-05T14:49:54.464Z,54.09
2022-12-05T14:52:27.748Z,53.90
2022-12-05T14:55:09.270Z,53.72
2022-12-05T14:57:49.141Z,53.58
2022-12-05T15:00:23.147Z,53.78
2022-12-05T15:02:55.654Z,53.67
2022-12-05T15:05:32.223Z,53.73
2022-12-05T15:08:04.915Z,53.36
2022-12-05T15:10:42.185Z,53.56
2022-12-05T15:13:19.312Z,53.46
2022-12-05T15:16:01.285Z,53.33
2022-12-05T15:18:46.966Z,53.81
2022-12-05T15:21:43.425Z,53.54
2022-12-05T15:24:19.373Z,53.74
2022-12-05T15:26:56.926Z,53.58
2022-12-05T15:29:30.036Z,53.23
2022-12-05T15:32:13.818Z,53.13
2022-12-05T15:35:05.319Z,53.07
2022-12-05T15:37:52.908Z,53.17
2022-12-05T15:40:24.230Z,53.37
2022-12-05T15:42:55.637Z,53.34
2022-12-05T15:45:26.671Z,53.37
2022-12-05T15:47:57.541Z,53.34
2022-12-05T15:50:45.635Z,52.96
2022-12-05T15:53:37.122Z,53.33
2022-12-05T15:56:34.439Z,52.86
2022-12-05T15:59:33.411Z,53.22
2022-12-05T16:02:20.611Z,52.84
2022-12-05T16:04:58.231Z,52.93
2022-12-05T16:07:30.968Z,52.87
2022-12-05T16:10:01.100Z,53.14
2022-12-05T16:12:41.952Z,52.73
2022-12-05T16:15:28.091Z,52.70
2022-12-05T16:18:02.169Z,52.98
2022-12-05T16:20:36.264Z,52.90
2022-12-05T16:23:23.138Z,52.84
2022-12-05T16:25:52.726Z,52.95
2022-12-05T16:28:23.744Z,52.77
2022-12-05T16:31:02.745Z,52.55
2022-12-05T16:33:32.100Z,52.70
2022-12-05T16:36:11.717Z,52.34
2022-12-05T16:39:07.059Z,52.82
2022-12-05T16:41:39.365Z,52.65
2022-12-05T16:44:27.686Z,52.31
2022-12-05T16:46:56.796Z,52.60
2022-12-05T16:49:30.895Z,52.48
2022-12-05T16:52:14.983Z,52.42
2022-12-05T16:54:48.170Z,52.50
2022-12-05T16:57:17.719Z,52.70
2022-12-05T16:59:49.646Z,52.56
2022-12-05T17:02:20.682Z,52.63
2022-12-05T17:04:48.899Z,52.67
2022-12-05T17:07:16.780Z,52.69
2022-12-05T17:09:44.979Z,52.73
2022-12-05T17:12:24.010Z,52.63
2022-12-05T17:14:52.144Z,52.66
2022-12-05T17:17:21.248Z,52.85
2022-12-05T17:19:49.488Z,52.93
2022-12-05T17:22:17.940Z,52.65
2022-12-05T17:24:47.541Z,52.90
2022-12-05T17:27:17.745Z,52.83
2022-12-05T17:29:46.423Z,52.54
2022-12-05T17:32:15.508Z,52.48
2022-12-05T17:34:43.508Z,52.66
2022-12-05T17:37:11.573Z,52.60
2022-12-05T17:39:39.603Z,52.72
2022-12-05T17:42:08.503Z,52.60
2022-12-05T17:44:36.961Z,52.41
2022-12-05T17:47:08.150Z,52.25
2022-12-05T17:49:36.515Z,52.38
2022-12-05T17:52:21.375Z,52.28
2022-12-05T17:54:50.856Z,52.39
2022-12-05T17:57:18.925Z,52.24
2022-12-05T17:59:48.318Z,52.23
2022-12-05T18:02:20.247Z,52.19
2022-12-05T18:04:49.662Z,52.17
2022-12-05T18:07:17.902Z,51.77
2022-12-05T18:09:45.879Z,51.70
2022-12-05T18:12:14.654Z,51.99
2022-12-05T18:14:43.311Z,51.76
2022-12-05T18:17:11.304Z,51.79
2022-12-05T18:19:39.675Z,51.90
2022-12-05T18:22:07.959Z,51.82
2022-12-05T18:24:36.598Z,52.10
2022-12-05T18:27:05.147Z,51.78
2022-12-05T18:29:34.008Z,51.81
2022-12-05T18:32:02.784Z,52.20
2022-12-05T18:34:31.048Z,51.95
2022-12-05T18:36:59.828Z,51.80
2022-12-05T18:39:28.935Z,52.05
2022-12-05T18:41:57.715Z,51.96
2022-12-05T18:44:26.752Z,52.10
2022-12-05T18:46:55.091Z,52.23
2022-12-05T18:49:23.328Z,51.76
2022-12-05T18:51:52.657Z,51.72
2022-12-05T18:54:21.004Z,52.08
2022-12-05T18:56:51.465Z,51.77
2022-12-05T18:59:23.245Z,51.84
2022-12-05T19:01:52.690Z,51.94
2022-12-05T19:04:22.748Z,51.61
2022-12-05T19:07:02.365Z,51.51
2022-12-05T19:09:32.604Z,51.83
2022-12-05T19:12:02.030Z,52.07
2022-12-05T19:14:33.675Z,52.04
2022-12-05T19:17:04.203Z,51.88
2022-12-05T19:19:33.503Z,51.70
2022-12-05T19:22:02.638Z,51.72
2022-12-05T19:24:31.352Z,51.57
2022-12-05T19:26:59.850Z,51.37
2022-12-05T19:29:29.264Z,51.71
2022-12-05T19:31:57.963Z,51.68
2022-12-05T19:34:28.364Z,51.64
2022-12-05T19:36:57.516Z,51.64
2022-12-05T19:39:27.457Z,51.94
2022-12-05T19:42:00.584Z,52.05
2022-12-05T19:44:29.333Z,52.27
2022-12-05T19:46:58.363Z,52.20
2022-12-05T19:49:28.648Z,52.26
2022-12-05T19:51:57.428Z,52.43
2022-12-05T19:54:26.886Z,52.63
2022-12-05T19:56:58.592Z,52.63
2022-12-05T19:59:32.777Z,52.75
2022-12-05T20:02:03.217Z,52.83
2022-12-05T20:04:34.479Z,52.48
2022-12-05T20:07:03.775Z,52.53
2022-12-05T20:09:35.052Z,52.85
2022-12-05T20:12:04.602Z,52.51
2022-12-05T20:14:34.872Z,52.53
2022-12-05T20:17:05.554Z,52.56
2022-12-05T20:19:34.892Z,52.53
2022-12-05T20:22:06.264Z,52.74
2022-12-05T20:24:44.240Z,52.74
2022-12-05T20:27:14.571Z,52.75
2022-12-05T20:29:46.043Z,52.74
2022-12-05T20:32:15.620Z,52.96
2022-12-05T20:34:46.763Z,52.65
2022-12-05T20:37:18.004Z,52.72
2022-12-05T20:39:47.604Z,52.85
2022-12-05T20:42:18.537Z,52.91
2022-12-05T20:44:49.418Z,53.08
2022-12-05T20:47:18.863Z,52.84
2022-12-05T20:49:50.119Z,52.64
2022-12-05T20:52:19.414Z,52.70
2022-12-05T20:54:47.953Z,52.89
2022-12-05T20:57:17.240Z,52.71
2022-12-05T20:59:46.444Z,52.63
2022-12-05T21:02:14.982Z,52.46
2022-12-05T21:04:43.673Z,52.72
2022-12-05T21:07:13.532Z,53.00
2022-12-05T21:09:42.311Z,52.78
2022-12-05T21:12:10.734Z,52.94
2022-12-05T21:14:40.024Z,52.62
2022-12-05T21:17:10.277Z,52.96
2022-12-05T21:19:39.729Z,52.92
2022-12-05T21:22:08.265Z,52.88
2022-12-05T21:24:40.212Z,52.78
2022-12-05T21:27:09.042Z,52.96
2022-12-05T21:29:37.232Z,52.97
2022-12-05T21:32:06.359Z,53.00
2022-12-05T21:34:34.605Z,52.80
2022-12-05T21:37:03.353Z,52.65
2022-12-05T21:39:32.423Z,53.12
2022-12-05T21:42:05.644Z,52.95
2022-12-05T21:44:33.948Z,52.93
2022-12-05T21:47:02.364Z,52.83
2022-12-05T21:49:30.892Z,52.90
2022-12-05T21:51:59.159Z,53.08
2022-12-05T21:54:27.320Z,52.67
2022-12-05T21:56:55.386Z,53.14
2022-12-05T21:59:23.792Z,53.26
2022-12-05T22:01:52.788Z,53.05
2022-12-05T22:04:21.031Z,53.09
2022-12-05T22:06:49.524Z,52.97
2022-12-05T22:09:19.179Z,52.86
2022-12-05T22:11:47.811Z,52.80
2022-12-05T22:14:15.971Z,52.97
2022-12-05T22:16:44.249Z,52.63
2022-12-05T22:19:12.575Z,52.79
2022-12-05T22:21:40.718Z,52.65
2022-12-05T22:24:11.228Z,52.76
2022-12-05T22:26:41.526Z,52.92
2022-12-05T22:29:09.970Z,52.83
2022-12-05T22:31:40.576Z,52.85
2022-12-05T22:34:09.266Z,52.85
2022-12-05T22:36:37.305Z,52.66
2022-12-05T22:39:05.342Z,52.80
2022-12-05T22:41:33.894Z,52.82
2022-12-05T22:44:01.771Z,52.71
2022-12-05T22:46:29.683Z,52.90
2022-12-05T22:48:58.681Z,52.86
2022-12-05T22:51:27.618Z,52.63
2022-12-05T22:53:56.755Z,52.63
2022-12-05T22:56:28.819Z,52.79
2022-12-05T22:59:00.251Z,52.63
2022-12-05T23:01:34.484Z,52.79
2022-12-05T23:04:11.511Z,52.92
2022-12-05T23:06:40.199Z,52.67
2022-12-05T23:09:10.941Z,52.61
2022-12-05T23:11:40.265Z,52.90
2022-12-05T23:14:09.572Z,52.56
2022-12-05T23:16:37.597Z,52.53
2022-12-05T23:19:06.038Z,52.73
2022-12-05T23:21:39.024Z,52.76
2022-12-05T23:24:12.860Z,52.62
2022-12-05T23:26:46.043Z,52.47
2022-12-05T23:29:15.044Z,52.62
2022-12-05T23:31:43.435Z,52.53
2022-12-05T23:34:12.443Z,52.53
2022-12-05T23:36:40.658Z,52.70
2022-12-05T23:39:10.531Z,52.76
2022-12-05T23:41:38.858Z,52.78
2022-12-05T23:44:07.127Z,52.59
2022-12-05T23:46:35.091Z,52.76
2022-12-05T23:49:04.160Z,52.88
2022-12-05T23:51:32.435Z,52.60
2022-12-05T23:54:04.297Z,52.57
2022-12-05T23:56:34.783Z,52.50
2022-12-05T23:59:06.564Z,52.92
